sensor_id;sensor_type;location;lat;lon;timestamp;temperature;humidity
22850;DHT22;11591;44.792;10.358;2023-04-06T00:01:51;7.60;90.50
22850;DHT22;11591;44.792;10.358;2023-04-06T00:04:17;7.60;90.50
22850;DHT22;11591;44.792;10.358;2023-04-06T00:06:43;7.60;90.60
22850;DHT22;11591;44.792;10.358;2023-04-06T00:09:09;7.60;90.50
22850;DHT22;11591;44.792;10.358;2023-04-06T00:11:34;7.70;90.40
22850;DHT22;11591;44.792;10.358;2023-04-06T00:14:00;7.60;90.30
22850;DHT22;11591;44.792;10.358;2023-04-06T00:16:26;7.70;90.30
22850;DHT22;11591;44.792;10.358;2023-04-06T00:18:52;7.70;90.30
22850;DHT22;11591;44.792;10.358;2023-04-06T00:21:18;7.70;90.40
22850;DHT22;11591;44.792;10.358;2023-04-06T00:23:43;7.50;90.20
22850;DHT22;11591;44.792;10.358;2023-04-06T00:26:10;7.40;90.50
22850;DHT22;11591;44.792;10.358;2023-04-06T00:28:43;7.40;90.50
22850;DHT22;11591;44.792;10.358;2023-04-06T00:31:09;7.40;90.80
22850;DHT22;11591;44.792;10.358;2023-04-06T00:33:35;7.40;90.90
22850;DHT22;11591;44.792;10.358;2023-04-06T00:36:00;7.30;91.10
22850;DHT22;11591;44.792;10.358;2023-04-06T00:38:26;7.30;91.10
22850;DHT22;11591;44.792;10.358;2023-04-06T00:40:52;7.20;90.80
22850;DHT22;11591;44.792;10.358;2023-04-06T00:43:18;7.30;90.70
22850;DHT22;11591;44.792;10.358;2023-04-06T00:45:44;7.30;90.80
22850;DHT22;11591;44.792;10.358;2023-04-06T00:48:10;7.30;90.50
22850;DHT22;11591;44.792;10.358;2023-04-06T00:50:36;7.30;90.40
22850;DHT22;11591;44.792;10.358;2023-04-06T00:53:02;7.30;90.50
22850;DHT22;11591;44.792;10.358;2023-04-06T00:55:28;7.30;90.50
22850;DHT22;11591;44.792;10.358;2023-04-06T00:57:57;7.30;90.40
22850;DHT22;11591;44.792;10.358;2023-04-06T01:00:24;7.10;90.20
22850;DHT22;11591;44.792;10.358;2023-04-06T01:02:55;7.10;90.00
22850;DHT22;11591;44.792;10.358;2023-04-06T01:05:27;7.20;89.90
22850;DHT22;11591;44.792;10.358;2023-04-06T01:07:56;7.20;90.00
22850;DHT22;11591;44.792;10.358;2023-04-06T01:10:27;7.20;90.20
22850;DHT22;11591;44.792;10.358;2023-04-06T01:13:20;7.10;90.00
22850;DHT22;11591;44.792;10.358;2023-04-06T01:15:54;7.00;90.00
22850;DHT22;11591;44.792;10.358;2023-04-06T01:18:28;6.70;90.20
22850;DHT22;11591;44.792;10.358;2023-04-06T01:21:08;6.80;90.30
22850;DHT22;11591;44.792;10.358;2023-04-06T01:23:35;6.80;90.20
22850;DHT22;11591;44.792;10.358;2023-04-06T01:26:02;6.80;90.00
22850;DHT22;11591;44.792;10.358;2023-04-06T01:28:30;6.80;90.00
22850;DHT22;11591;44.792;10.358;2023-04-06T01:31:06;6.70;89.90
22850;DHT22;11591;44.792;10.358;2023-04-06T01:33:43;6.70;90.00
22850;DHT22;11591;44.792;10.358;2023-04-06T01:36:13;6.70;90.00
22850;DHT22;11591;44.792;10.358;2023-04-06T01:38:39;6.70;89.80
22850;DHT22;11591;44.792;10.358;2023-04-06T01:41:06;6.80;89.70
22850;DHT22;11591;44.792;10.358;2023-04-06T01:43:44;6.80;89.80
22850;DHT22;11591;44.792;10.358;2023-04-06T01:46:10;6.70;89.80
22850;DHT22;11591;44.792;10.358;2023-04-06T01:48:40;6.60;90.00
22850;DHT22;11591;44.792;10.358;2023-04-06T01:51:18;6.60;90.00
22850;DHT22;11591;44.792;10.358;2023-04-06T01:53:52;6.50;90.10
22850;DHT22;11591;44.792;10.358;2023-04-06T01:56:20;6.60;90.20
22850;DHT22;11591;44.792;10.358;2023-04-06T01:58:56;6.60;90.30
22850;DHT22;11591;44.792;10.358;2023-04-06T02:01:23;6.50;90.10
22850;DHT22;11591;44.792;10.358;2023-04-06T02:03:53;6.40;90.20
22850;DHT22;11591;44.792;10.358;2023-04-06T02:06:20;6.20;90.50
22850;DHT22;11591;44.792;10.358;2023-04-06T02:08:47;6.20;90.30
22850;DHT22;11591;44.792;10.358;2023-04-06T02:11:13;6.10;90.30
22850;DHT22;11591;44.792;10.358;2023-04-06T02:13:44;6.10;90.70
22850;DHT22;11591;44.792;10.358;2023-04-06T02:16:10;6.10;90.80
22850;DHT22;11591;44.792;10.358;2023-04-06T02:18:36;6.10;91.00
22850;DHT22;11591;44.792;10.358;2023-04-06T02:21:02;6.00;91.20
22850;DHT22;11591;44.792;10.358;2023-04-06T02:23:28;6.10;91.20
22850;DHT22;11591;44.792;10.358;2023-04-06T02:25:56;6.00;91.40
22850;DHT22;11591;44.792;10.358;2023-04-06T02:28:22;6.00;91.50
22850;DHT22;11591;44.792;10.358;2023-04-06T02:30:48;6.00;91.70
22850;DHT22;11591;44.792;10.358;2023-04-06T02:33:14;6.00;91.70
22850;DHT22;11591;44.792;10.358;2023-04-06T02:35:45;5.90;91.90
22850;DHT22;11591;44.792;10.358;2023-04-06T02:38:11;5.90;91.80
22850;DHT22;11591;44.792;10.358;2023-04-06T02:40:37;5.70;92.10
22850;DHT22;11591;44.792;10.358;2023-04-06T02:43:15;5.70;92.30
22850;DHT22;11591;44.792;10.358;2023-04-06T02:45:43;5.70;92.30
22850;DHT22;11591;44.792;10.358;2023-04-06T02:48:10;5.60;92.50
22850;DHT22;11591;44.792;10.358;2023-04-06T02:50:36;5.60;92.50
22850;DHT22;11591;44.792;10.358;2023-04-06T02:53:05;5.50;92.80
22850;DHT22;11591;44.792;10.358;2023-04-06T02:55:32;5.50;92.80
22850;DHT22;11591;44.792;10.358;2023-04-06T02:57:57;5.50;93.30
22850;DHT22;11591;44.792;10.358;2023-04-06T03:00:29;5.50;93.10
22850;DHT22;11591;44.792;10.358;2023-04-06T03:02:54;5.50;93.20
22850;DHT22;11591;44.792;10.358;2023-04-06T03:05:21;5.60;93.30
22850;DHT22;11591;44.792;10.358;2023-04-06T03:07:47;5.50;93.50
22850;DHT22;11591;44.792;10.358;2023-04-06T03:10:20;5.60;93.50
22850;DHT22;11591;44.792;10.358;2023-04-06T03:12:47;5.70;93.50
22850;DHT22;11591;44.792;10.358;2023-04-06T03:15:20;5.60;93.60
22850;DHT22;11591;44.792;10.358;2023-04-06T03:17:50;5.60;93.50
22850;DHT22;11591;44.792;10.358;2023-04-06T03:20:39;5.60;93.60
22850;DHT22;11591;44.792;10.358;2023-04-06T03:23:05;5.70;93.50
22850;DHT22;11591;44.792;10.358;2023-04-06T03:25:35;5.70;93.70
22850;DHT22;11591;44.792;10.358;2023-04-06T03:28:04;5.70;93.70
22850;DHT22;11591;44.792;10.358;2023-04-06T03:30:34;5.70;93.60
22850;DHT22;11591;44.792;10.358;2023-04-06T03:33:00;5.60;93.90
22850;DHT22;11591;44.792;10.358;2023-04-06T03:35:29;5.60;93.80
22850;DHT22;11591;44.792;10.358;2023-04-06T03:37:56;5.50;93.80
22850;DHT22;11591;44.792;10.358;2023-04-06T03:40:23;5.50;93.70
22850;DHT22;11591;44.792;10.358;2023-04-06T03:42:49;5.30;93.60
22850;DHT22;11591;44.792;10.358;2023-04-06T03:45:16;5.30;93.40
22850;DHT22;11591;44.792;10.358;2023-04-06T03:47:48;5.20;93.40
22850;DHT22;11591;44.792;10.358;2023-04-06T03:50:14;5.30;93.50
22850;DHT22;11591;44.792;10.358;2023-04-06T03:52:40;5.20;93.50
22850;DHT22;11591;44.792;10.358;2023-04-06T03:55:07;5.30;93.60
22850;DHT22;11591;44.792;10.358;2023-04-06T03:57:34;5.20;93.40
22850;DHT22;11591;44.792;10.358;2023-04-06T04:00:00;5.10;93.20
22850;DHT22;11591;44.792;10.358;2023-04-06T04:02:26;5.00;92.90
22850;DHT22;11591;44.792;10.358;2023-04-06T04:04:52;5.00;92.60
22850;DHT22;11591;44.792;10.358;2023-04-06T04:07:17;5.00;92.70
22850;DHT22;11591;44.792;10.358;2023-04-06T04:09:43;4.90;92.70
22850;DHT22;11591;44.792;10.358;2023-04-06T04:12:10;4.90;92.90
22850;DHT22;11591;44.792;10.358;2023-04-06T04:14:36;4.90;92.80
22850;DHT22;11591;44.792;10.358;2023-04-06T04:17:02;4.90;92.90
22850;DHT22;11591;44.792;10.358;2023-04-06T04:19:27;5.10;93.00
22850;DHT22;11591;44.792;10.358;2023-04-06T04:21:54;5.10;93.00
22850;DHT22;11591;44.792;10.358;2023-04-06T04:24:28;5.00;92.70
22850;DHT22;11591;44.792;10.358;2023-04-06T04:26:55;5.00;92.70
22850;DHT22;11591;44.792;10.358;2023-04-06T04:29:22;5.00;92.50
22850;DHT22;11591;44.792;10.358;2023-04-06T04:31:50;5.10;92.50
22850;DHT22;11591;44.792;10.358;2023-04-06T04:34:17;4.90;91.90
22850;DHT22;11591;44.792;10.358;2023-04-06T04:36:45;5.00;92.00
22850;DHT22;11591;44.792;10.358;2023-04-06T04:39:17;4.90;92.30
22850;DHT22;11591;44.792;10.358;2023-04-06T04:41:49;4.90;92.30
22850;DHT22;11591;44.792;10.358;2023-04-06T04:44:14;4.90;91.80
22850;DHT22;11591;44.792;10.358;2023-04-06T04:46:41;4.90;91.20
22850;DHT22;11591;44.792;10.358;2023-04-06T04:49:09;4.90;91.00
22850;DHT22;11591;44.792;10.358;2023-04-06T04:51:35;4.90;90.40
22850;DHT22;11591;44.792;10.358;2023-04-06T04:54:13;4.90;89.80
22850;DHT22;11591;44.792;10.358;2023-04-06T04:56:40;4.90;90.00
22850;DHT22;11591;44.792;10.358;2023-04-06T04:59:22;4.90;90.30
22850;DHT22;11591;44.792;10.358;2023-04-06T05:01:55;4.90;89.90
22850;DHT22;11591;44.792;10.358;2023-04-06T05:04:28;4.90;89.60
22850;DHT22;11591;44.792;10.358;2023-04-06T05:07:08;4.90;89.20
22850;DHT22;11591;44.792;10.358;2023-04-06T05:09:37;4.90;88.90
22850;DHT22;11591;44.792;10.358;2023-04-06T05:12:03;4.90;89.20
22850;DHT22;11591;44.792;10.358;2023-04-06T05:14:34;4.80;89.20
22850;DHT22;11591;44.792;10.358;2023-04-06T05:17:03;4.80;89.50
22850;DHT22;11591;44.792;10.358;2023-04-06T05:19:29;4.80;89.60
22850;DHT22;11591;44.792;10.358;2023-04-06T05:21:56;4.90;89.80
22850;DHT22;11591;44.792;10.358;2023-04-06T05:24:22;4.80;90.50
22850;DHT22;11591;44.792;10.358;2023-04-06T05:26:49;5.00;90.60
22850;DHT22;11591;44.792;10.358;2023-04-06T05:29:20;5.10;90.70
22850;DHT22;11591;44.792;10.358;2023-04-06T05:31:46;5.10;90.40
22850;DHT22;11591;44.792;10.358;2023-04-06T05:34:13;5.20;90.60
22850;DHT22;11591;44.792;10.358;2023-04-06T05:36:39;5.30;90.50
22850;DHT22;11591;44.792;10.358;2023-04-06T05:39:15;5.20;90.40
22850;DHT22;11591;44.792;10.358;2023-04-06T05:41:49;5.10;90.60
22850;DHT22;11591;44.792;10.358;2023-04-06T05:44:19;5.20;90.90
22850;DHT22;11591;44.792;10.358;2023-04-06T05:46:49;5.20;90.90
22850;DHT22;11591;44.792;10.358;2023-04-06T05:49:16;5.20;90.90
22850;DHT22;11591;44.792;10.358;2023-04-06T05:51:43;5.20;90.90
22850;DHT22;11591;44.792;10.358;2023-04-06T05:54:09;5.30;91.00
22850;DHT22;11591;44.792;10.358;2023-04-06T05:56:34;5.30;91.10
22850;DHT22;11591;44.792;10.358;2023-04-06T05:59:01;5.40;90.80
22850;DHT22;11591;44.792;10.358;2023-04-06T06:01:29;5.40;90.70
22850;DHT22;11591;44.792;10.358;2023-04-06T06:03:55;5.40;90.80
22850;DHT22;11591;44.792;10.358;2023-04-06T06:06:24;5.30;90.90
22850;DHT22;11591;44.792;10.358;2023-04-06T06:09:07;5.30;91.10
22850;DHT22;11591;44.792;10.358;2023-04-06T06:11:39;5.30;91.30
22850;DHT22;11591;44.792;10.358;2023-04-06T06:14:06;5.30;91.50
22850;DHT22;11591;44.792;10.358;2023-04-06T06:16:35;5.40;91.40
22850;DHT22;11591;44.792;10.358;2023-04-06T06:19:02;5.50;91.40
22850;DHT22;11591;44.792;10.358;2023-04-06T06:21:28;5.40;91.20
22850;DHT22;11591;44.792;10.358;2023-04-06T06:23:54;5.50;91.50
22850;DHT22;11591;44.792;10.358;2023-04-06T06:26:20;5.60;91.20
22850;DHT22;11591;44.792;10.358;2023-04-06T06:28:48;5.60;90.40
22850;DHT22;11591;44.792;10.358;2023-04-06T06:31:14;5.70;90.40
22850;DHT22;11591;44.792;10.358;2023-04-06T06:33:42;5.70;90.00
22850;DHT22;11591;44.792;10.358;2023-04-06T06:36:08;5.80;90.20
22850;DHT22;11591;44.792;10.358;2023-04-06T06:38:34;5.90;90.10
22850;DHT22;11591;44.792;10.358;2023-04-06T06:41:00;6.00;89.80
22850;DHT22;11591;44.792;10.358;2023-04-06T06:43:30;6.10;89.40
22850;DHT22;11591;44.792;10.358;2023-04-06T06:46:00;6.20;88.80
22850;DHT22;11591;44.792;10.358;2023-04-06T06:48:26;6.20;88.10
22850;DHT22;11591;44.792;10.358;2023-04-06T06:50:52;6.20;87.80
22850;DHT22;11591;44.792;10.358;2023-04-06T06:53:19;6.20;87.30
22850;DHT22;11591;44.792;10.358;2023-04-06T06:55:45;6.30;86.60
22850;DHT22;11591;44.792;10.358;2023-04-06T06:58:11;6.40;86.60
22850;DHT22;11591;44.792;10.358;2023-04-06T07:00:37;6.50;86.30
22850;DHT22;11591;44.792;10.358;2023-04-06T07:03:04;6.50;86.30
22850;DHT22;11591;44.792;10.358;2023-04-06T07:05:29;6.60;86.40
22850;DHT22;11591;44.792;10.358;2023-04-06T07:07:57;6.70;85.90
22850;DHT22;11591;44.792;10.358;2023-04-06T07:10:24;6.80;85.90
22850;DHT22;11591;44.792;10.358;2023-04-06T07:12:51;6.90;85.80
22850;DHT22;11591;44.792;10.358;2023-04-06T07:15:17;7.00;86.10
22850;DHT22;11591;44.792;10.358;2023-04-06T07:17:43;7.00;89.00
22850;DHT22;11591;44.792;10.358;2023-04-06T07:20:12;7.10;90.30
22850;DHT22;11591;44.792;10.358;2023-04-06T07:22:40;7.20;91.20
22850;DHT22;11591;44.792;10.358;2023-04-06T07:25:07;7.30;91.70
22850;DHT22;11591;44.792;10.358;2023-04-06T07:27:32;7.30;92.10
22850;DHT22;11591;44.792;10.358;2023-04-06T07:29:59;7.40;92.20
22850;DHT22;11591;44.792;10.358;2023-04-06T07:32:25;7.50;92.40
22850;DHT22;11591;44.792;10.358;2023-04-06T07:34:52;7.30;91.60
22850;DHT22;11591;44.792;10.358;2023-04-06T07:37:18;7.40;92.00
22850;DHT22;11591;44.792;10.358;2023-04-06T07:39:44;7.50;92.10
22850;DHT22;11591;44.792;10.358;2023-04-06T07:42:11;7.50;92.00
22850;DHT22;11591;44.792;10.358;2023-04-06T07:44:37;7.60;92.00
22850;DHT22;11591;44.792;10.358;2023-04-06T07:47:03;7.60;92.10
22850;DHT22;11591;44.792;10.358;2023-04-06T07:49:28;7.70;92.50
22850;DHT22;11591;44.792;10.358;2023-04-06T07:51:56;7.70;92.70
22850;DHT22;11591;44.792;10.358;2023-04-06T07:54:22;7.80;92.50
22850;DHT22;11591;44.792;10.358;2023-04-06T07:56:47;7.90;92.30
22850;DHT22;11591;44.792;10.358;2023-04-06T07:59:13;7.90;92.30
22850;DHT22;11591;44.792;10.358;2023-04-06T08:01:39;7.90;92.10
22850;DHT22;11591;44.792;10.358;2023-04-06T08:04:05;8.00;92.00
22850;DHT22;11591;44.792;10.358;2023-04-06T08:06:31;8.00;91.70
22850;DHT22;11591;44.792;10.358;2023-04-06T08:08:56;8.00;90.90
22850;DHT22;11591;44.792;10.358;2023-04-06T08:11:22;7.90;90.90
22850;DHT22;11591;44.792;10.358;2023-04-06T08:13:48;8.00;91.00
22850;DHT22;11591;44.792;10.358;2023-04-06T08:16:14;8.00;90.90
22850;DHT22;11591;44.792;10.358;2023-04-06T08:18:40;8.10;91.10
22850;DHT22;11591;44.792;10.358;2023-04-06T08:21:06;8.20;91.00
22850;DHT22;11591;44.792;10.358;2023-04-06T08:23:32;8.30;91.10
22850;DHT22;11591;44.792;10.358;2023-04-06T08:25:57;8.40;90.90
22850;DHT22;11591;44.792;10.358;2023-04-06T08:28:23;8.40;90.60
22850;DHT22;11591;44.792;10.358;2023-04-06T08:30:49;8.40;89.60
22850;DHT22;11591;44.792;10.358;2023-04-06T08:33:15;8.50;87.90
22850;DHT22;11591;44.792;10.358;2023-04-06T08:35:41;8.50;86.90
22850;DHT22;11591;44.792;10.358;2023-04-06T08:38:06;8.60;84.40
22850;DHT22;11591;44.792;10.358;2023-04-06T08:40:39;8.60;83.50
22850;DHT22;11591;44.792;10.358;2023-04-06T08:43:12;8.70;84.00
22850;DHT22;11591;44.792;10.358;2023-04-06T08:45:40;8.80;84.60
22850;DHT22;11591;44.792;10.358;2023-04-06T08:48:06;8.80;84.00
22850;DHT22;11591;44.792;10.358;2023-04-06T08:50:35;8.90;84.40
22850;DHT22;11591;44.792;10.358;2023-04-06T08:53:02;8.90;84.60
22850;DHT22;11591;44.792;10.358;2023-04-06T08:55:28;9.00;84.00
22850;DHT22;11591;44.792;10.358;2023-04-06T08:57:54;9.00;84.20
22850;DHT22;11591;44.792;10.358;2023-04-06T09:00:21;9.10;83.90
22850;DHT22;11591;44.792;10.358;2023-04-06T09:02:49;9.10;84.10
22850;DHT22;11591;44.792;10.358;2023-04-06T09:05:15;9.10;84.50
22850;DHT22;11591;44.792;10.358;2023-04-06T09:07:41;9.20;85.10
22850;DHT22;11591;44.792;10.358;2023-04-06T09:10:08;9.20;85.20
22850;DHT22;11591;44.792;10.358;2023-04-06T09:12:34;9.30;85.60
22850;DHT22;11591;44.792;10.358;2023-04-06T09:15:01;9.30;85.90
22850;DHT22;11591;44.792;10.358;2023-04-06T09:17:31;9.40;84.60
22850;DHT22;11591;44.792;10.358;2023-04-06T09:20:03;9.40;84.60
22850;DHT22;11591;44.792;10.358;2023-04-06T09:22:38;9.40;84.60
22850;DHT22;11591;44.792;10.358;2023-04-06T09:25:05;9.50;84.70
22850;DHT22;11591;44.792;10.358;2023-04-06T09:27:35;9.50;83.50
22850;DHT22;11591;44.792;10.358;2023-04-06T09:30:14;9.60;83.20
22850;DHT22;11591;44.792;10.358;2023-04-06T09:32:52;9.60;82.50
22850;DHT22;11591;44.792;10.358;2023-04-06T09:35:19;9.70;82.80
22850;DHT22;11591;44.792;10.358;2023-04-06T09:37:48;9.70;82.40
22850;DHT22;11591;44.792;10.358;2023-04-06T09:40:15;9.80;82.60
22850;DHT22;11591;44.792;10.358;2023-04-06T09:42:45;9.90;82.60
22850;DHT22;11591;44.792;10.358;2023-04-06T09:45:12;9.90;81.50
22850;DHT22;11591;44.792;10.358;2023-04-06T09:47:42;10.00;81.50
22850;DHT22;11591;44.792;10.358;2023-04-06T09:50:10;10.00;80.90
22850;DHT22;11591;44.792;10.358;2023-04-06T09:52:50;10.10;81.50
22850;DHT22;11591;44.792;10.358;2023-04-06T09:55:35;10.10;81.60
22850;DHT22;11591;44.792;10.358;2023-04-06T09:58:05;10.20;82.10
22850;DHT22;11591;44.792;10.358;2023-04-06T10:00:47;10.30;80.80
22850;DHT22;11591;44.792;10.358;2023-04-06T10:06:03;10.40;80.50
22850;DHT22;11591;44.792;10.358;2023-04-06T10:08:33;10.50;79.80
22850;DHT22;11591;44.792;10.358;2023-04-06T10:11:01;10.50;79.80
22850;DHT22;11591;44.792;10.358;2023-04-06T10:13:27;10.60;80.00
22850;DHT22;11591;44.792;10.358;2023-04-06T10:15:54;10.60;80.00
22850;DHT22;11591;44.792;10.358;2023-04-06T10:18:21;10.60;80.30
22850;DHT22;11591;44.792;10.358;2023-04-06T10:20:55;10.70;80.00
22850;DHT22;11591;44.792;10.358;2023-04-06T10:26:03;10.70;80.10
22850;DHT22;11591;44.792;10.358;2023-04-06T10:28:34;10.80;78.60
22850;DHT22;11591;44.792;10.358;2023-04-06T10:31:04;10.80;79.30
22850;DHT22;11591;44.792;10.358;2023-04-06T10:33:30;10.90;80.00
22850;DHT22;11591;44.792;10.358;2023-04-06T10:35:56;10.90;81.90
22850;DHT22;11591;44.792;10.358;2023-04-06T10:38:33;11.00;81.50
22850;DHT22;11591;44.792;10.358;2023-04-06T10:41:07;11.10;82.00
22850;DHT22;11591;44.792;10.358;2023-04-06T10:43:35;11.10;79.50
22850;DHT22;11591;44.792;10.358;2023-04-06T10:46:06;11.10;78.60
22850;DHT22;11591;44.792;10.358;2023-04-06T10:48:43;11.10;79.00
22850;DHT22;11591;44.792;10.358;2023-04-06T10:51:16;11.10;79.10
22850;DHT22;11591;44.792;10.358;2023-04-06T10:53:47;11.20;79.40
22850;DHT22;11591;44.792;10.358;2023-04-06T10:56:15;11.20;79.10
22850;DHT22;11591;44.792;10.358;2023-04-06T10:58:49;11.20;79.60
22850;DHT22;11591;44.792;10.358;2023-04-06T11:01:16;11.20;80.60
22850;DHT22;11591;44.792;10.358;2023-04-06T11:03:47;11.30;81.40
22850;DHT22;11591;44.792;10.358;2023-04-06T11:06:21;11.40;81.70
22850;DHT22;11591;44.792;10.358;2023-04-06T11:08:47;11.40;81.80
22850;DHT22;11591;44.792;10.358;2023-04-06T11:11:15;11.50;80.80
22850;DHT22;11591;44.792;10.358;2023-04-06T11:13:56;11.60;81.10
22850;DHT22;11591;44.792;10.358;2023-04-06T11:16:25;11.60;81.10
22850;DHT22;11591;44.792;10.358;2023-04-06T11:26:47;11.80;80.20
22850;DHT22;11591;44.792;10.358;2023-04-06T11:29:27;11.80;79.30
22850;DHT22;11591;44.792;10.358;2023-04-06T11:34:24;11.90;79.10
22850;DHT22;11591;44.792;10.358;2023-04-06T11:36:58;11.90;78.30
22850;DHT22;11591;44.792;10.358;2023-04-06T11:39:26;11.90;78.60
22850;DHT22;11591;44.792;10.358;2023-04-06T11:41:57;11.90;79.30
22850;DHT22;11591;44.792;10.358;2023-04-06T11:46:56;12.00;81.50
22850;DHT22;11591;44.792;10.358;2023-04-06T11:49:26;12.10;81.20
22850;DHT22;11591;44.792;10.358;2023-04-06T11:51:51;12.20;79.50
22850;DHT22;11591;44.792;10.358;2023-04-06T11:54:17;12.20;79.50
22850;DHT22;11591;44.792;10.358;2023-04-06T11:56:46;12.20;79.70
22850;DHT22;11591;44.792;10.358;2023-04-06T11:59:12;12.30;79.50
22850;DHT22;11591;44.792;10.358;2023-04-06T12:01:45;12.30;79.00
22850;DHT22;11591;44.792;10.358;2023-04-06T12:04:11;12.40;78.50
22850;DHT22;11591;44.792;10.358;2023-04-06T12:06:37;12.40;77.90
22850;DHT22;11591;44.792;10.358;2023-04-06T12:09:03;12.40;78.60
22850;DHT22;11591;44.792;10.358;2023-04-06T12:11:29;12.50;78.80
22850;DHT22;11591;44.792;10.358;2023-04-06T12:13:55;12.50;78.50
22850;DHT22;11591;44.792;10.358;2023-04-06T12:16:20;12.60;77.80
22850;DHT22;11591;44.792;10.358;2023-04-06T12:18:46;12.60;77.20
22850;DHT22;11591;44.792;10.358;2023-04-06T12:21:12;12.50;77.00
22850;DHT22;11591;44.792;10.358;2023-04-06T12:23:37;12.50;76.60
22850;DHT22;11591;44.792;10.358;2023-04-06T12:26:03;12.50;78.40
22850;DHT22;11591;44.792;10.358;2023-04-06T12:28:29;12.60;76.90
22850;DHT22;11591;44.792;10.358;2023-04-06T12:30:55;12.60;77.40
22850;DHT22;11591;44.792;10.358;2023-04-06T12:33:21;12.60;77.90
22850;DHT22;11591;44.792;10.358;2023-04-06T12:35:47;12.60;77.80
22850;DHT22;11591;44.792;10.358;2023-04-06T12:38:13;12.80;78.20
22850;DHT22;11591;44.792;10.358;2023-04-06T12:40:39;12.90;77.30
22850;DHT22;11591;44.792;10.358;2023-04-06T12:43:05;13.00;77.60
22850;DHT22;11591;44.792;10.358;2023-04-06T12:45:31;13.00;77.50
22850;DHT22;11591;44.792;10.358;2023-04-06T12:47:58;13.10;77.20
22850;DHT22;11591;44.792;10.358;2023-04-06T12:50:24;13.20;78.50
22850;DHT22;11591;44.792;10.358;2023-04-06T12:52:49;13.30;78.60
22850;DHT22;11591;44.792;10.358;2023-04-06T12:55:15;13.40;78.10
22850;DHT22;11591;44.792;10.358;2023-04-06T12:57:41;13.50;77.50
22850;DHT22;11591;44.792;10.358;2023-04-06T13:00:08;13.50;77.20
22850;DHT22;11591;44.792;10.358;2023-04-06T13:02:34;13.60;76.70
22850;DHT22;11591;44.792;10.358;2023-04-06T13:04:59;13.70;77.30
22850;DHT22;11591;44.792;10.358;2023-04-06T13:07:25;13.90;76.90
22850;DHT22;11591;44.792;10.358;2023-04-06T13:09:51;14.10;73.60
22850;DHT22;11591;44.792;10.358;2023-04-06T13:12:18;14.30;71.30
22850;DHT22;11591;44.792;10.358;2023-04-06T13:14:43;14.30;70.90
22850;DHT22;11591;44.792;10.358;2023-04-06T13:17:09;14.50;71.60
22850;DHT22;11591;44.792;10.358;2023-04-06T13:19:36;14.70;71.30
22850;DHT22;11591;44.792;10.358;2023-04-06T13:22:02;14.90;70.40
22850;DHT22;11591;44.792;10.358;2023-04-06T13:24:28;15.20;70.60
22850;DHT22;11591;44.792;10.358;2023-04-06T13:26:54;15.30;69.40
22850;DHT22;11591;44.792;10.358;2023-04-06T13:29:20;15.60;69.60
22850;DHT22;11591;44.792;10.358;2023-04-06T13:31:46;16.00;69.50
22850;DHT22;11591;44.792;10.358;2023-04-06T13:34:12;16.40;68.80
22850;DHT22;11591;44.792;10.358;2023-04-06T13:36:37;16.50;67.70
22850;DHT22;11591;44.792;10.358;2023-04-06T13:39:06;16.40;68.10
22850;DHT22;11591;44.792;10.358;2023-04-06T13:41:31;16.70;68.20
22850;DHT22;11591;44.792;10.358;2023-04-06T13:43:57;17.20;68.10
22850;DHT22;11591;44.792;10.358;2023-04-06T13:46:23;17.60;67.40
22850;DHT22;11591;44.792;10.358;2023-04-06T13:48:49;17.80;66.80
22850;DHT22;11591;44.792;10.358;2023-04-06T13:51:16;18.10;66.80
22850;DHT22;11591;44.792;10.358;2023-04-06T13:53:42;18.10;65.90
22850;DHT22;11591;44.792;10.358;2023-04-06T13:56:08;18.20;66.30
22850;DHT22;11591;44.792;10.358;2023-04-06T13:58:33;17.70;65.90
22850;DHT22;11591;44.792;10.358;2023-04-06T14:04:25;18.20;65.80
22850;DHT22;11591;44.792;10.358;2023-04-06T14:06:51;18.50;66.50
22850;DHT22;11591;44.792;10.358;2023-04-06T14:09:16;18.70;66.60
22850;DHT22;11591;44.792;10.358;2023-04-06T14:11:42;18.40;66.60
22850;DHT22;11591;44.792;10.358;2023-04-06T14:14:08;18.10;67.40
22850;DHT22;11591;44.792;10.358;2023-04-06T14:16:33;18.20;67.30
22850;DHT22;11591;44.792;10.358;2023-04-06T14:18:59;18.20;66.90
22850;DHT22;11591;44.792;10.358;2023-04-06T14:21:25;18.40;67.50
22850;DHT22;11591;44.792;10.358;2023-04-06T14:23:52;18.60;66.70
22850;DHT22;11591;44.792;10.358;2023-04-06T14:26:18;18.80;66.80
22850;DHT22;11591;44.792;10.358;2023-04-06T14:28:45;19.00;66.20
22850;DHT22;11591;44.792;10.358;2023-04-06T14:31:13;18.80;64.80
22850;DHT22;11591;44.792;10.358;2023-04-06T14:33:41;18.40;64.40
22850;DHT22;11591;44.792;10.358;2023-04-06T14:36:07;18.20;65.00
22850;DHT22;11591;44.792;10.358;2023-04-06T14:38:34;18.40;64.70
22850;DHT22;11591;44.792;10.358;2023-04-06T14:41:00;18.60;64.80
22850;DHT22;11591;44.792;10.358;2023-04-06T14:43:26;18.80;66.00
22850;DHT22;11591;44.792;10.358;2023-04-06T14:45:52;19.10;66.50
22850;DHT22;11591;44.792;10.358;2023-04-06T14:48:18;19.40;66.30
22850;DHT22;11591;44.792;10.358;2023-04-06T14:50:56;18.40;64.20
22850;DHT22;11591;44.792;10.358;2023-04-06T14:53:26;17.60;64.70
22850;DHT22;11591;44.792;10.358;2023-04-06T14:55:52;17.10;66.70
22850;DHT22;11591;44.792;10.358;2023-04-06T14:58:21;17.10;67.10
22850;DHT22;11591;44.792;10.358;2023-04-06T15:00:48;17.40;67.10
22850;DHT22;11591;44.792;10.358;2023-04-06T15:03:14;17.10;68.40
22850;DHT22;11591;44.792;10.358;2023-04-06T15:05:41;17.00;69.10
22850;DHT22;11591;44.792;10.358;2023-04-06T15:08:07;17.20;68.70
22850;DHT22;11591;44.792;10.358;2023-04-06T15:10:35;17.50;68.40
22850;DHT22;11591;44.792;10.358;2023-04-06T15:13:02;17.80;68.40
22850;DHT22;11591;44.792;10.358;2023-04-06T15:15:29;18.10;67.80
22850;DHT22;11591;44.792;10.358;2023-04-06T15:17:54;18.40;68.40
22850;DHT22;11591;44.792;10.358;2023-04-06T15:20:20;18.00;66.20
22850;DHT22;11591;44.792;10.358;2023-04-06T15:22:46;18.10;66.80
22850;DHT22;11591;44.792;10.358;2023-04-06T15:25:12;17.50;67.20
22850;DHT22;11591;44.792;10.358;2023-04-06T15:27:37;17.60;68.10
22850;DHT22;11591;44.792;10.358;2023-04-06T15:30:04;17.80;68.50
22850;DHT22;11591;44.792;10.358;2023-04-06T15:32:30;18.10;68.20
22850;DHT22;11591;44.792;10.358;2023-04-06T15:34:57;18.20;67.30
22850;DHT22;11591;44.792;10.358;2023-04-06T15:37:23;17.10;66.70
22850;DHT22;11591;44.792;10.358;2023-04-06T15:39:49;16.90;68.00
22850;DHT22;11591;44.792;10.358;2023-04-06T15:42:15;16.70;68.50
22850;DHT22;11591;44.792;10.358;2023-04-06T15:44:41;16.30;69.20
22850;DHT22;11591;44.792;10.358;2023-04-06T15:47:07;16.30;69.90
22850;DHT22;11591;44.792;10.358;2023-04-06T15:49:33;16.40;69.70
22850;DHT22;11591;44.792;10.358;2023-04-06T15:51:59;16.50;70.00